createdAt,value
2022-12-18T00:02:20.504Z,56.40
2022-12-18T00:07:23.437Z,56.30
2022-12-18T00:12:26.353Z,56.30
2022-12-18T00:17:30.642Z,55.90
2022-12-18T00:22:33.627Z,55.70
2022-12-18T00:27:36.572Z,55.80
2022-12-18T00:32:41.094Z,55.90
2022-12-18T00:37:44.040Z,56.10
2022-12-18T00:43:00.286Z,56.10
2022-12-18T00:48:05.126Z,56.00
2022-12-18T00:53:08.245Z,56.00
2022-12-18T00:58:12.007Z,56.00
2022-12-18T01:03:16.743Z,56.20
2022-12-18T01:08:21.484Z,56.20
2022-12-18T01:13:24.426Z,56.20
2022-12-18T01:18:29.455Z,56.30
2022-12-18T01:23:36.115Z,56.10
2022-12-18T01:28:39.650Z,55.80
2022-12-18T01:33:45.534Z,55.80
2022-12-18T01:38:49.209Z,55.90
2022-12-18T01:43:54.674Z,55.90
2022-12-18T01:49:02.289Z,55.90
2022-12-18T01:54:05.282Z,55.90
2022-12-18T01:59:12.006Z,55.90
2022-12-18T02:04:24.744Z,55.80
2022-12-18T02:09:33.682Z,55.60
2022-12-18T02:14:40.923Z,55.70
2022-12-18T02:19:57.949Z,55.60
2022-12-18T02:25:15.236Z,55.70
2022-12-18T02:30:20.729Z,55.70
2022-12-18T02:35:26.970Z,55.60
2022-12-18T02:40:33.692Z,55.50
2022-12-18T02:45:47.959Z,55.60
2022-12-18T02:50:57.314Z,55.60
2022-12-18T02:56:07.632Z,55.60
2022-12-18T03:01:15.929Z,55.50
2022-12-18T03:06:25.479Z,55.60
2022-12-18T03:11:55.019Z,55.60
2022-12-18T03:17:03.849Z,55.50
2022-12-18T03:22:10.524Z,55.50
2022-12-18T03:27:24.407Z,55.40
2022-12-18T03:32:35.626Z,55.40
2022-12-18T03:37:39.469Z,55.40
2022-12-18T03:42:49.879Z,55.50
2022-12-18T03:48:02.622Z,55.70
2022-12-18T03:53:19.211Z,55.60
2022-12-18T03:58:27.639Z,55.40
2022-12-18T04:03:48.109Z,55.50
2022-12-18T04:08:52.077Z,55.50
2022-12-18T04:13:59.621Z,55.60
2022-12-18T04:19:04.087Z,55.60
2022-12-18T04:24:12.457Z,55.60
2022-12-18T04:29:21.889Z,55.60
2022-12-18T04:34:26.455Z,55.60
2022-12-18T04:39:30.798Z,55.60
2022-12-18T04:44:38.847Z,55.40
2022-12-18T04:49:43.156Z,55.40
2022-12-18T04:54:46.091Z,55.40
2022-12-18T04:59:48.994Z,55.40
2022-12-18T05:04:54.575Z,55.50
2022-12-18T05:09:57.562Z,55.50
2022-12-18T05:15:00.496Z,55.50
2022-12-18T05:20:05.251Z,55.50
2022-12-18T05:25:08.784Z,55.40
2022-12-18T05:30:13.858Z,55.40
2022-12-18T05:35:18.186Z,56.10
2022-12-18T05:40:21.139Z,55.90
2022-12-18T05:45:24.114Z,55.30
2022-12-18T05:50:28.383Z,55.20
2022-12-18T05:55:38.467Z,55.30
2022-12-18T06:00:43.013Z,55.30
2022-12-18T06:05:47.566Z,55.20
2022-12-18T06:10:53.951Z,55.20
2022-12-18T06:15:56.941Z,55.30
2022-12-18T06:21:02.795Z,55.40
2022-12-18T06:26:07.473Z,55.20
2022-12-18T06:31:11.229Z,55.20
2022-12-18T06:36:15.970Z,55.20
2022-12-18T06:41:20.758Z,55.30
2022-12-18T06:46:23.690Z,55.40
2022-12-18T06:51:27.973Z,55.30
2022-12-18T06:56:31.281Z,55.30
2022-12-18T07:01:34.432Z,55.10
2022-12-18T07:06:38.797Z,55.20
2022-12-18T07:11:41.709Z,55.30
2022-12-18T07:16:44.690Z,55.30
2022-12-18T07:21:48.997Z,55.30
2022-12-18T07:26:52.026Z,55.30
2022-12-18T07:31:54.992Z,55.30
2022-12-18T07:36:59.316Z,55.50
2022-12-18T07:42:19.691Z,55.50
2022-12-18T07:47:25.041Z,55.30
2022-12-18T07:52:29.321Z,55.20
2022-12-18T07:57:49.854Z,55.20
2022-12-18T08:02:55.872Z,55.20
2022-12-18T08:08:00.588Z,55.30
2022-12-18T08:13:05.244Z,55.50
2022-12-18T08:18:13.916Z,55.60
2022-12-18T08:23:18.671Z,55.80
2022-12-18T08:28:21.779Z,56.20
2022-12-18T08:33:25.703Z,56.50
2022-12-18T08:38:30.407Z,56.80
2022-12-18T08:43:52.069Z,56.60
2022-12-18T08:48:56.153Z,56.60
2022-12-18T08:54:00.491Z,56.80
2022-12-18T08:59:03.488Z,56.90
2022-12-18T09:04:07.963Z,57.20
2022-12-18T09:09:12.791Z,57.20
2022-12-18T09:14:15.873Z,57.30
2022-12-18T09:19:18.930Z,57.50
2022-12-18T09:24:23.195Z,57.50
2022-12-18T09:29:26.133Z,57.50
2022-12-18T09:34:30.156Z,57.70
2022-12-18T09:39:34.480Z,57.90
2022-12-18T09:44:44.964Z,57.90
2022-12-18T09:49:51.368Z,57.90
2022-12-18T09:55:01.029Z,58.10
2022-12-18T10:00:19.487Z,58.10
2022-12-18T10:05:31.153Z,58.30
2022-12-18T10:10:42.145Z,58.20
2022-12-18T10:15:57.366Z,58.20
2022-12-18T10:21:11.862Z,58.40
2022-12-18T10:26:16.451Z,58.70
2022-12-18T10:31:21.422Z,58.90
2022-12-18T10:36:27.673Z,59.10
2022-12-18T10:41:33.298Z,59.30
2022-12-18T10:46:36.569Z,59.40
2022-12-18T10:51:39.909Z,60.30
2022-12-18T10:56:45.888Z,60.20
2022-12-18T11:01:52.386Z,61.20
2022-12-18T11:07:01.519Z,62.70
2022-12-18T11:12:16.425Z,62.10
2022-12-18T11:17:26.712Z,61.40
2022-12-18T11:22:32.197Z,60.80
2022-12-18T11:27:36.506Z,61.10
2022-12-18T11:32:42.851Z,60.80
2022-12-18T11:37:50.978Z,60.30
2022-12-18T11:43:00.238Z,60.40
2022-12-18T11:48:07.730Z,59.70
2022-12-18T11:53:13.486Z,59.30
2022-12-18T11:58:31.684Z,59.10
2022-12-18T12:04:00.880Z,58.40
2022-12-18T12:09:13.847Z,58.30
2022-12-18T12:14:34.460Z,59.00
2022-12-18T12:19:46.595Z,58.40
2022-12-18T12:25:01.424Z,58.40
2022-12-18T12:30:20.852Z,58.30
2022-12-18T12:35:35.505Z,58.50
2022-12-18T12:40:55.249Z,58.00
2022-12-18T12:46:07.584Z,58.00
2022-12-18T12:51:18.159Z,58.20
2022-12-18T12:56:23.197Z,58.20
2022-12-18T13:01:38.733Z,58.00
2022-12-18T13:06:47.748Z,57.90
2022-12-18T13:12:08.675Z,58.10
2022-12-18T13:17:34.049Z,58.20
2022-12-18T13:22:39.261Z,58.30
2022-12-18T13:28:05.407Z,58.00
2022-12-18T13:34:01.934Z,58.10
2022-12-18T13:39:36.761Z,58.10
2022-12-18T13:44:42.655Z,58.10
2022-12-18T13:49:49.043Z,58.20
2022-12-18T13:54:55.390Z,58.20
2022-12-18T13:59:59.386Z,58.10
2022-12-18T14:05:03.959Z,58.40
2022-12-18T14:15:43.528Z,58.70
2022-12-18T14:20:52.904Z,58.80
2022-12-18T14:25:58.614Z,58.70
2022-12-18T14:31:05.221Z,58.70
2022-12-18T14:36:18.724Z,58.80
2022-12-18T14:41:23.401Z,58.80
2022-12-18T14:46:36.693Z,58.80
2022-12-18T14:51:41.022Z,59.00
2022-12-18T14:56:49.543Z,58.80
2022-12-18T15:02:00.505Z,59.00
2022-12-18T15:07:11.582Z,58.90
2022-12-18T15:12:35.772Z,59.20
2022-12-18T15:17:39.413Z,58.90
2022-12-18T15:22:43.988Z,58.80
2022-12-18T15:27:49.151Z,58.80
2022-12-18T15:32:55.479Z,58.90
2022-12-18T15:38:00.610Z,58.90
2022-12-18T15:43:21.459Z,59.00
2022-12-18T15:48:24.920Z,58.90
2022-12-18T15:53:34.626Z,59.00
2022-12-18T15:58:37.526Z,59.00
2022-12-18T16:03:40.861Z,58.90
2022-12-18T16:08:45.766Z,59.00
2022-12-18T16:13:48.853Z,59.00
2022-12-18T16:18:52.278Z,59.00
2022-12-18T16:23:57.581Z,58.90
2022-12-18T16:29:00.538Z,58.80
2022-12-18T16:34:16.241Z,58.90
2022-12-18T16:39:20.615Z,59.00
2022-12-18T16:44:23.830Z,58.90
2022-12-18T16:49:26.876Z,59.10
2022-12-18T16:54:31.351Z,59.10
2022-12-18T16:59:34.418Z,59.00
2022-12-18T17:04:37.484Z,59.00
2022-12-18T17:09:42.692Z,59.10
2022-12-18T17:14:45.594Z,59.10
2022-12-18T17:19:49.764Z,59.30
2022-12-18T17:24:54.254Z,59.30
2022-12-18T17:29:57.215Z,59.50
2022-12-18T17:35:05.363Z,59.60
2022-12-18T17:40:13.304Z,59.70
2022-12-18T17:45:16.543Z,59.80
2022-12-18T17:50:19.495Z,59.90
2022-12-18T17:55:24.243Z,60.10
2022-12-18T18:00:27.166Z,60.60
2022-12-18T18:05:30.100Z,60.20
2022-12-18T18:10:38.229Z,60.30
2022-12-18T18:15:41.499Z,60.30
2022-12-18T18:20:52.506Z,60.20
2022-12-18T18:25:56.901Z,60.30
2022-12-18T18:31:04.928Z,60.50
2022-12-18T18:36:12.710Z,60.80
2022-12-18T18:41:16.095Z,60.30
2022-12-18T18:46:19.096Z,60.50
2022-12-18T18:51:24.146Z,60.30
2022-12-18T18:56:56.257Z,60.10
2022-12-18T19:01:52.767Z,60.40
2022-12-18T19:06:57.260Z,60.40
2022-12-18T19:12:17.530Z,60.50
2022-12-18T19:17:23.757Z,60.40
2022-12-18T19:22:32.270Z,60.20
2022-12-18T19:27:38.607Z,60.20
2022-12-18T19:32:41.816Z,60.30
2022-12-18T19:37:46.088Z,60.30
2022-12-18T19:42:49.119Z,60.30
2022-12-18T19:47:52.127Z,60.30
2022-12-18T19:52:56.415Z,60.00
2022-12-18T19:57:59.359Z,60.10
2022-12-18T20:03:10.040Z,59.90
2022-12-18T20:08:20.460Z,59.90
2022-12-18T20:13:23.413Z,59.90
2022-12-18T20:18:26.694Z,59.80
2022-12-18T20:25:48.747Z,59.30
2022-12-18T20:30:52.424Z,59.80
2022-12-18T20:35:55.449Z,59.60
2022-12-18T20:41:02.652Z,59.50
2022-12-18T20:46:08.785Z,59.50
2022-12-18T20:51:13.197Z,59.50
2022-12-18T20:56:21.493Z,59.40
2022-12-18T21:01:26.452Z,59.40
2022-12-18T21:06:29.669Z,59.40
2022-12-18T21:11:52.194Z,59.30
2022-12-18T21:16:56.821Z,59.30
2022-12-18T21:21:59.983Z,59.30
2022-12-18T21:27:05.564Z,59.40
2022-12-18T21:32:09.216Z,59.40
2022-12-18T21:37:12.612Z,59.30
2022-12-18T21:42:34.934Z,59.30
2022-12-18T21:47:38.162Z,59.40
2022-12-18T21:52:41.937Z,59.30
2022-12-18T21:57:46.271Z,59.30
2022-12-18T22:03:17.757Z,59.30
2022-12-18T22:08:13.604Z,59.20
2022-12-18T22:13:18.310Z,59.30
2022-12-18T22:18:21.421Z,59.30
2022-12-18T22:23:24.556Z,59.30
2022-12-18T22:28:46.182Z,59.20
2022-12-18T22:33:49.096Z,59.20
2022-12-18T22:38:52.026Z,59.10
2022-12-18T22:43:57.935Z,59.10
2022-12-18T22:49:00.889Z,59.10
2022-12-18T22:54:03.920Z,59.10
2022-12-18T22:59:09.675Z,59.00
2022-12-18T23:04:13.173Z,59.10
2022-12-18T23:09:18.599Z,59.00
2022-12-18T23:14:22.882Z,59.10
2022-12-18T23:19:26.159Z,59.30
2022-12-18T23:24:31.301Z,59.20
2022-12-18T23:29:37.374Z,59.20
2022-12-18T23:34:40.362Z,59.00
2022-12-18T23:39:43.266Z,58.90
2022-12-18T23:44:47.692Z,59.00
2022-12-18T23:49:50.689Z,59.10
2022-12-18T23:54:53.658Z,59.20
2022-12-18T23:59:58.187Z,59.10
